Time;durP1;ratioP1;P1;durP2;ratioP2;P2;SDS_P1;SDS_P2;PMS_P1;PMS_P2;Temp;Humidity;BMP_temperature;BMP_pressure;BME280_temperature;BME280_humidity;BME280_pressure;Samples;Min_cycle;Max_cycle;Signal;HPM_P1;HPM_P2
2022/08/24 00:00:14;;;;;;;7.05;3.40;;;21.60;99.90;;;;;;5066893;28;20120;-83
2022/08/24 00:02:40;;;;;;;8.85;3.40;;;21.50;99.90;;;;;;5066592;28;20013;-83
2022/08/24 00:05:06;;;;;;;4.65;2.67;;;21.50;99.90;;;;;;5066312;28;20028;-82
2022/08/24 00:07:33;;;;;;;6.55;3.45;;;21.40;99.90;;;;;;5067159;28;20024;-83
2022/08/24 00:09:59;;;;;;;13.85;2.95;;;21.30;99.90;;;;;;5065959;28;20123;-82
2022/08/24 00:12:25;;;;;;;7.28;3.38;;;21.20;99.90;;;;;;5069329;28;20021;-83
2022/08/24 00:14:52;;;;;;;7.82;3.58;;;21.10;99.90;;;;;;5068246;28;20037;-83
2022/08/24 00:17:19;;;;;;;6.95;2.63;;;21.10;99.90;;;;;;5068186;28;20012;-82
2022/08/24 00:19:45;;;;;;;7.10;3.53;;;21.00;99.90;;;;;;5069142;28;20047;-82
2022/08/24 00:22:11;;;;;;;14.45;3.75;;;20.90;99.90;;;;;;5067558;28;20771;-82
2022/08/24 00:24:36;;;;;;;7.22;2.95;;;20.90;99.90;;;;;;5066526;28;20036;-84
2022/08/24 00:27:03;;;;;;;7.63;3.85;;;20.80;99.90;;;;;;5068550;28;20021;-82
2022/08/24 00:29:28;;;;;;;8.45;3.92;;;20.80;99.90;;;;;;5066938;28;20029;-83
2022/08/24 00:31:54;;;;;;;6.80;3.53;;;20.80;99.90;;;;;;5066458;28;20425;-82
2022/08/24 00:34:20;;;;;;;6.90;3.47;;;20.90;99.90;;;;;;5066564;28;20035;-82
2022/08/24 00:36:45;;;;;;;5.85;3.30;;;20.90;99.90;;;;;;5064913;28;20123;-82
2022/08/24 00:39:12;;;;;;;8.95;3.90;;;20.90;99.90;;;;;;5065916;28;20033;-81
2022/08/24 00:41:44;;;;;;;5.85;3.58;;;20.90;99.90;;;;;;5065222;28;20025;-83
2022/08/24 00:44:10;;;;;;;5.70;2.85;;;20.90;99.90;;;;;;5065106;28;20120;-81
2022/08/24 00:47:07;;;;;;;8.70;4.10;;;20.90;99.90;;;;;;5065800;28;20031;-83
2022/08/24 00:49:53;;;;;;;11.45;3.20;;;20.80;99.90;;;;;;5065237;28;20450;-84
2022/08/24 00:52:37;;;;;;;7.47;3.58;;;20.80;99.90;;;;;;5067074;28;20082;-85
2022/08/24 00:55:25;;;;;;;7.80;3.75;;;20.90;99.90;;;;;;5064849;28;20049;-82
2022/08/24 00:57:56;;;;;;;6.35;3.67;;;20.90;99.90;;;;;;5065550;28;20060;-84
2022/08/24 01:00:27;;;;;;;6.15;3.38;;;20.90;99.90;;;;;;5066513;28;20102;-84
2022/08/24 01:02:57;;;;;;;5.47;3.72;;;20.80;99.90;;;;;;5066171;28;20035;-83
2022/08/24 01:05:23;;;;;;;8.30;3.58;;;20.80;99.90;;;;;;5065090;28;20031;-82
2022/08/24 01:07:49;;;;;;;5.78;3.45;;;20.80;99.90;;;;;;5065311;28;20032;-83
2022/08/24 01:10:23;;;;;;;5.75;3.55;;;20.70;99.90;;;;;;5080252;28;20028;-83
2022/08/24 01:12:53;;;;;;;4.80;3.13;;;20.70;99.90;;;;;;5083592;28;20032;-83
2022/08/24 01:15:19;;;;;;;10.20;4.13;;;20.70;99.90;;;;;;5069839;28;20040;-82
2022/08/24 01:20:29;;;;;;;8.65;3.60;;;20.70;99.90;;;;;;5070572;28;20496;-84
2022/08/24 01:23:03;;;;;;;5.50;3.10;;;20.70;99.90;;;;;;5068764;28;20025;-82
2022/08/24 01:25:31;;;;;;;7.00;3.22;;;20.70;99.90;;;;;;5068973;28;20041;-83
2022/08/24 01:28:02;;;;;;;6.68;3.22;;;20.70;99.90;;;;;;5069681;28;20024;-82
2022/08/24 01:30:28;;;;;;;5.35;3.08;;;20.70;99.90;;;;;;5068949;28;20055;-83
2022/08/24 01:32:56;;;;;;;5.53;3.22;;;20.60;99.90;;;;;;5068994;28;20572;-83
2022/08/24 01:35:22;;;;;;;5.70;3.42;;;20.60;99.90;;;;;;5068491;28;20040;-83
2022/08/24 01:37:49;;;;;;;8.68;3.45;;;20.60;99.90;;;;;;5068178;28;20028;-82
2022/08/24 01:40:17;;;;;;;10.60;3.63;;;20.60;99.90;;;;;;5067903;28;20021;-82
2022/08/24 01:42:51;;;;;;;8.70;4.50;;;20.60;99.90;;;;;;5060477;28;20028;-82
2022/08/24 01:45:18;;;;;;;6.03;4.10;;;20.50;99.90;;;;;;5068902;28;20576;-84
2022/08/24 01:47:44;;;;;;;7.47;4.60;;;20.50;99.90;;;;;;5068319;28;20501;-81
2022/08/24 01:50:10;;;;;;;8.77;3.78;;;20.60;99.90;;;;;;5068030;28;20047;-81
2022/08/24 01:52:39;;;;;;;8.32;5.20;;;20.50;99.90;;;;;;5068548;28;20128;-82
2022/08/24 01:55:07;;;;;;;8.20;4.43;;;20.50;99.90;;;;;;5077809;28;20559;-80
2022/08/24 01:57:33;;;;;;;10.40;5.10;;;20.50;99.90;;;;;;5061156;28;20032;-83
2022/08/24 02:00:00;;;;;;;13.60;4.70;;;20.40;99.90;;;;;;5068425;28;20039;-82
2022/08/24 02:02:29;;;;;;;8.77;4.05;;;20.40;99.90;;;;;;5068516;28;20037;-83
2022/08/24 02:04:55;;;;;;;5.68;4.18;;;20.40;99.90;;;;;;5067915;28;20025;-82
2022/08/24 02:07:21;;;;;;;11.77;4.85;;;20.40;99.90;;;;;;5068418;28;20035;-82
2022/08/24 02:09:47;;;;;;;8.82;5.07;;;20.40;99.90;;;;;;5067929;28;20083;-82
2022/08/24 02:12:14;;;;;;;8.52;4.68;;;20.40;99.90;;;;;;5064802;28;20032;-82
2022/08/24 02:14:40;;;;;;;13.35;5.13;;;20.40;99.90;;;;;;5047156;28;20032;-83
2022/08/24 02:17:07;;;;;;;11.80;5.97;;;20.40;99.90;;;;;;5047199;28;20025;-82
2022/08/24 02:19:33;;;;;;;11.82;4.88;;;20.40;99.90;;;;;;5048816;28;20040;-81
2022/08/24 02:21:59;;;;;;;14.63;5.70;;;20.40;99.90;;;;;;5047750;28;20033;-81
2022/08/24 02:24:26;;;;;;;8.85;4.70;;;20.40;99.90;;;;;;5050233;28;20482;-82
2022/08/24 02:26:52;;;;;;;8.13;5.97;;;20.30;99.90;;;;;;5068782;28;20035;-84
2022/08/24 02:29:18;;;;;;;9.13;5.28;;;20.30;99.90;;;;;;5068995;28;20123;-84
2022/08/24 02:31:43;;;;;;;10.98;5.32;;;20.30;99.90;;;;;;5068994;28;20103;-82
2022/08/24 02:34:09;;;;;;;9.35;5.90;;;20.30;99.90;;;;;;5067648;28;20560;-82
2022/08/24 02:36:35;;;;;;;9.85;5.47;;;20.30;99.90;;;;;;5068791;28;20173;-83
2022/08/24 02:39:01;;;;;;;8.77;4.63;;;20.30;99.90;;;;;;5067696;28;20165;-82
2022/08/24 02:41:27;;;;;;;14.10;4.68;;;20.30;99.90;;;;;;5067908;28;20032;-82
2022/08/24 02:43:54;;;;;;;9.40;5.28;;;20.30;99.90;;;;;;5068919;28;20028;-86
2022/08/24 02:46:21;;;;;;;12.52;4.63;;;20.30;99.90;;;;;;5069782;28;20037;-83
2022/08/24 02:48:47;;;;;;;9.23;4.10;;;20.30;99.90;;;;;;5069055;28;20025;-84
2022/08/24 02:51:25;;;;;;;23.77;5.10;;;20.30;99.90;;;;;;5067481;28;20043;-82
2022/08/24 02:53:51;;;;;;;21.30;5.10;;;20.50;99.90;;;;;;5067925;28;20041;-85
2022/08/24 02:56:20;;;;;;;21.27;5.03;;;20.60;99.90;;;;;;5069695;28;20546;-85
2022/08/24 02:58:47;;;;;;;21.90;5.53;;;20.80;99.90;;;;;;5068703;28;20023;-83
2022/08/24 03:01:13;;;;;;;18.83;4.68;;;21.10;99.90;;;;;;5067453;28;20119;-83
2022/08/24 03:03:39;;;;;;;28.05;5.68;;;21.20;99.90;;;;;;5067375;28;20405;-82
2022/08/24 03:06:06;;;;;;;24.13;6.70;;;21.40;99.90;;;;;;5065733;28;20029;-82
2022/08/24 03:08:33;;;;;;;21.60;5.80;;;21.50;99.90;;;;;;5066006;28;20036;-81
2022/08/24 03:10:59;;;;;;;34.67;4.88;;;21.60;99.90;;;;;;5067545;28;20028;-82
2022/08/24 03:13:29;;;;;;;14.88;4.43;;;21.70;99.90;;;;;;5066111;28;20563;-82
2022/08/24 03:15:56;;;;;;;14.77;4.53;;;21.70;99.90;;;;;;5066302;28;20174;-83
2022/08/24 03:18:27;;;;;;;12.32;4.63;;;21.80;99.90;;;;;;5066202;28;20021;-83
2022/08/24 03:20:54;;;;;;;15.93;4.38;;;21.70;99.90;;;;;;5066002;28;20405;-84
2022/08/24 03:23:20;;;;;;;20.98;4.20;;;21.80;99.90;;;;;;5068922;28;20067;-85
2022/08/24 03:25:45;;;;;;;12.23;5.35;;;21.80;99.90;;;;;;5067532;28;20052;-83
2022/08/24 03:28:11;;;;;;;11.98;5.35;;;21.70;99.90;;;;;;5068892;28;20024;-84
2022/08/24 03:30:42;;;;;;;12.95;5.78;;;21.60;99.90;;;;;;5067626;28;20531;-84
2022/08/24 03:33:09;;;;;;;8.35;5.15;;;21.40;99.90;;;;;;5066068;28;20028;-83
2022/08/24 03:35:34;;;;;;;11.23;5.65;;;21.30;99.90;;;;;;5066367;28;20068;-83
2022/08/24 03:38:00;;;;;;;18.75;4.93;;;21.10;99.90;;;;;;5066884;28;20056;-82
2022/08/24 03:40:27;;;;;;;10.57;5.88;;;21.00;99.90;;;;;;5066190;28;20082;-83
2022/08/24 03:42:53;;;;;;;9.65;4.57;;;21.00;99.90;;;;;;5048483;28;20112;-83
2022/08/24 03:45:20;;;;;;;20.52;6.55;;;20.90;99.90;;;;;;5046303;28;20128;-83
2022/08/24 03:47:46;;;;;;;13.85;5.32;;;20.80;99.90;;;;;;5047562;28;20542;-84
2022/08/24 03:50:12;;;;;;;14.70;6.20;;;20.80;99.90;;;;;;5049374;28;20108;-83
2022/08/24 03:52:38;;;;;;;17.00;5.45;;;20.70;99.90;;;;;;5047167;28;20143;-84
2022/08/24 03:55:05;;;;;;;20.58;6.15;;;20.80;99.90;;;;;;5046358;28;20127;-84
2022/08/24 03:57:31;;;;;;;14.70;5.47;;;20.80;99.90;;;;;;5063914;28;20389;-82
2022/08/24 03:59:57;;;;;;;13.75;5.07;;;20.80;99.90;;;;;;5065798;28;20032;-82
2022/08/24 04:02:23;;;;;;;12.63;6.10;;;20.70;99.90;;;;;;5063908;28;20032;-82
2022/08/24 04:04:49;;;;;;;16.42;5.53;;;20.70;99.90;;;;;;5046346;28;20191;-83
2022/08/24 04:07:15;;;;;;;12.90;6.22;;;20.60;99.90;;;;;;5047559;28;20044;-83
2022/08/24 04:09:41;;;;;;;13.70;6.70;;;20.50;99.90;;;;;;5056644;28;20485;-84
2022/08/24 04:12:07;;;;;;;13.18;5.68;;;20.50;99.90;;;;;;5067072;28;20043;-85
2022/08/24 04:14:33;;;;;;;9.13;5.40;;;20.50;99.90;;;;;;5081496;28;20037;-85
2022/08/24 04:17:00;;;;;;;11.60;5.78;;;20.50;99.90;;;;;;5090150;28;20081;-85
2022/08/24 04:19:26;;;;;;;12.40;6.22;;;20.50;99.90;;;;;;5086379;28;20481;-85
2022/08/24 04:21:52;;;;;;;13.10;5.30;;;20.50;99.90;;;;;;5071579;28;20363;-82
2022/08/24 04:24:19;;;;;;;12.60;5.65;;;20.50;99.90;;;;;;5067686;28;20067;-82
2022/08/24 04:26:45;;;;;;;12.63;4.90;;;20.50;99.90;;;;;;5066129;28;20032;-80
2022/08/24 04:29:12;;;;;;;9.80;4.57;;;20.50;99.90;;;;;;5065358;28;20032;-82
2022/08/24 04:31:40;;;;;;;8.90;4.43;;;20.60;99.90;;;;;;5066441;28;20044;-82
2022/08/24 04:34:06;;;;;;;10.60;4.82;;;20.60;99.90;;;;;;5065944;28;20032;-83
2022/08/24 04:36:32;;;;;;;15.60;4.78;;;20.70;99.90;;;;;;5065218;28;20066;-82
2022/08/24 04:38:59;;;;;;;12.85;4.43;;;20.80;99.90;;;;;;5064544;28;20024;-82
2022/08/24 04:41:25;;;;;;;7.18;3.47;;;20.80;99.90;;;;;;5067015;28;20040;-82
2022/08/24 04:43:52;;;;;;;12.80;4.40;;;20.80;99.90;;;;;;5064856;28;20553;-82
2022/08/24 04:46:19;;;;;;;6.05;4.13;;;20.90;99.90;;;;;;5065913;28;20028;-82
2022/08/24 04:48:47;;;;;;;9.60;4.30;;;21.00;99.90;;;;;;5063802;28;20031;-81
2022/08/24 04:51:16;;;;;;;8.73;3.83;;;21.10;99.90;;;;;;5065221;28;20029;-84
2022/08/24 04:53:43;;;;;;;6.85;4.00;;;21.10;99.90;;;;;;5067267;28;20035;-80
2022/08/24 04:56:12;;;;;;;13.15;4.60;;;21.30;99.90;;;;;;5066062;28;20128;-80
2022/08/24 04:58:38;;;;;;;11.40;5.25;;;21.40;99.90;;;;;;5071197;28;20040;-82
2022/08/24 05:01:08;;;;;;;9.55;3.95;;;21.50;99.90;;;;;;5067141;28;20021;-83
2022/08/24 05:03:35;;;;;;;9.90;4.13;;;21.50;99.90;;;;;;5065580;28;20028;-83
2022/08/24 05:06:00;;;;;;;10.98;3.90;;;21.60;99.90;;;;;;5059202;28;20074;-82
2022/08/24 05:08:26;;;;;;;11.93;3.88;;;21.80;99.90;;;;;;5065647;28;20028;-82
2022/08/24 05:10:52;;;;;;;10.32;4.40;;;22.00;99.90;;;;;;5066986;28;20060;-82
2022/08/24 05:13:18;;;;;;;11.15;4.90;;;22.20;99.90;;;;;;5059056;28;20059;-83
2022/08/24 05:15:46;;;;;;;12.15;3.90;;;22.40;99.90;;;;;;5063447;28;20040;-83
2022/08/24 05:18:12;;;;;;;12.13;3.55;;;22.60;99.90;;;;;;5067038;28;20508;-82
2022/08/24 05:20:46;;;;;;;10.95;4.25;;;22.70;99.90;;;;;;5065823;28;20052;-83
2022/08/24 05:23:12;;;;;;;10.38;3.70;;;22.90;99.90;;;;;;5054242;28;20790;-83
2022/08/24 05:25:38;;;;;;;10.05;3.83;;;23.10;99.90;;;;;;5063882;28;20413;-82
2022/08/24 05:28:04;;;;;;;11.95;3.60;;;23.30;99.90;;;;;;5065384;28;20021;-83
2022/08/24 05:30:30;;;;;;;14.52;4.35;;;23.50;99.90;;;;;;5065544;28;20049;-83
2022/08/24 05:32:56;;;;;;;11.95;3.83;;;23.60;99.90;;;;;;5064788;28;20059;-83
2022/08/24 05:35:21;;;;;;;9.75;3.33;;;23.60;99.90;;;;;;5065226;28;20083;-83
2022/08/24 05:37:47;;;;;;;12.38;3.47;;;23.60;99.90;;;;;;5065404;28;20344;-83
2022/08/24 05:40:15;;;;;;;18.58;4.40;;;23.80;99.90;;;;;;5065634;28;20396;-83
2022/08/24 05:42:41;;;;;;;13.57;3.45;;;24.10;99.90;;;;;;5064208;28;20477;-83
2022/08/24 05:45:07;;;;;;;12.55;3.40;;;24.40;99.90;;;;;;5064437;28;20074;-83
2022/08/24 05:47:33;;;;;;;13.07;3.80;;;24.70;99.90;;;;;;5064050;28;20032;-84
2022/08/24 05:50:00;;;;;;;15.52;3.88;;;24.80;99.90;;;;;;5077875;28;20032;-83
2022/08/24 05:52:26;;;;;;;9.52;3.67;;;25.00;99.90;;;;;;5101716;28;20030;-83
2022/08/24 05:54:54;;;;;;;10.77;3.70;;;25.20;99.90;;;;;;5085172;28;20040;-84
2022/08/24 05:57:20;;;;;;;9.75;3.63;;;25.30;99.90;;;;;;5076521;28;20028;-84
2022/08/24 05:59:47;;;;;;;8.30;3.13;;;25.50;99.90;;;;;;5065151;28;20115;-83
2022/08/24 06:02:13;;;;;;;8.55;3.20;;;25.60;99.90;;;;;;5067428;28;20032;-83
2022/08/24 06:04:39;;;;;;;12.35;5.55;;;25.80;99.90;;;;;;5067568;28;20641;-83
2022/08/24 06:07:08;;;;;;;9.05;3.15;;;26.00;99.90;;;;;;5068099;28;20031;-83
2022/08/24 06:09:33;;;;;;;10.27;3.00;;;26.10;99.90;;;;;;5067863;28;20063;-83
2022/08/24 06:11:59;;;;;;;12.40;3.95;;;26.20;99.90;;;;;;5068288;28;20060;-84
2022/08/24 06:14:25;;;;;;;8.88;3.45;;;26.30;99.90;;;;;;5068105;28;20111;-84
2022/08/24 06:16:51;;;;;;;8.57;3.30;;;26.20;99.90;;;;;;5068998;28;20127;-83
2022/08/24 06:19:18;;;;;;;14.15;3.85;;;26.00;99.90;;;;;;5067429;28;20381;-83
2022/08/24 06:21:47;;;;;;;10.52;3.58;;;25.80;99.90;;;;;;5069178;28;20558;-82
2022/08/24 06:24:16;;;;;;;8.77;3.75;;;25.60;99.90;;;;;;5067829;28;20025;-83
2022/08/24 06:29:27;;;;;;;14.85;4.00;;;25.40;99.90;;;;;;5069655;28;20036;-83
2022/08/24 06:31:54;;;;;;;10.32;3.28;;;25.40;99.90;;;;;;5067234;28;20301;-83
2022/08/24 06:34:21;;;;;;;15.23;3.90;;;25.40;99.90;;;;;;5067035;28;20035;-83
2022/08/24 06:36:47;;;;;;;17.40;3.97;;;25.50;99.90;;;;;;5067950;28;20040;-82
2022/08/24 06:39:13;;;;;;;20.20;4.10;;;25.50;99.90;;;;;;5067993;28;20024;-83
2022/08/24 06:41:39;;;;;;;16.65;4.10;;;25.70;99.90;;;;;;5067089;28;20032;-82
2022/08/24 06:44:07;;;;;;;16.67;4.20;;;25.80;99.90;;;;;;5068992;28;20103;-83
2022/08/24 06:46:35;;;;;;;16.27;5.47;;;26.10;99.90;;;;;;5067718;28;20086;-84
2022/08/24 06:49:00;;;;;;;16.00;4.13;;;26.20;99.90;;;;;;5066246;28;20017;-83
2022/08/24 06:51:26;;;;;;;13.20;4.88;;;26.10;99.90;;;;;;5066501;28;20039;-82
2022/08/24 06:53:54;;;;;;;15.45;4.13;;;26.40;99.90;;;;;;5068575;28;20190;-83
2022/08/24 06:56:21;;;;;;;13.05;3.78;;;26.80;99.90;;;;;;5067499;28;20074;-83
2022/08/24 06:58:46;;;;;;;17.50;3.80;;;26.90;99.90;;;;;;5066780;28;20028;-82
2022/08/24 07:01:14;;;;;;;14.85;4.15;;;27.00;99.90;;;;;;5067491;28;20025;-81
2022/08/24 07:03:40;;;;;;;18.80;5.15;;;26.80;99.90;;;;;;5066759;28;20059;-81
2022/08/24 07:06:06;;;;;;;12.02;3.95;;;26.60;99.90;;;;;;5067189;28;20056;-82
2022/08/24 07:08:32;;;;;;;12.40;3.67;;;26.40;99.90;;;;;;5068571;28;20024;-83
2022/08/24 07:10:58;;;;;;;14.95;5.13;;;26.10;99.90;;;;;;5066915;28;20029;-80
2022/08/24 07:13:24;;;;;;;11.93;4.25;;;26.00;99.90;;;;;;5066751;28;20036;-81
2022/08/24 07:15:51;;;;;;;19.92;5.00;;;25.80;99.90;;;;;;5067117;28;20040;-82
2022/08/24 07:18:18;;;;;;;20.50;4.93;;;25.70;99.90;;;;;;5066426;28;20455;-82
2022/08/24 07:20:45;;;;;;;15.32;4.30;;;25.40;99.90;;;;;;5067824;28;20032;-81
2022/08/24 07:23:13;;;;;;;17.30;5.78;;;25.10;99.90;;;;;;5067180;28;20025;-81
2022/08/24 07:25:39;;;;;;;35.95;6.68;;;24.80;99.90;;;;;;5066743;28;20314;-81
2022/08/24 07:28:05;;;;;;;22.67;4.85;;;24.70;99.90;;;;;;5066988;28;20523;-82
2022/08/24 07:30:31;;;;;;;16.50;4.80;;;24.50;99.90;;;;;;5067269;28;20068;-82
2022/08/24 07:32:57;;;;;;;15.25;5.55;;;24.50;99.90;;;;;;5066008;28;20123;-81
2022/08/24 07:35:26;;;;;;;26.27;5.80;;;24.40;99.90;;;;;;5066725;28;20051;-81
2022/08/24 07:37:51;;;;;;;28.17;5.78;;;24.40;99.90;;;;;;5068144;28;20531;-82
2022/08/24 07:40:17;;;;;;;18.63;5.05;;;24.40;99.90;;;;;;5066929;28;20036;-81
2022/08/24 07:42:47;;;;;;;27.00;6.35;;;24.40;99.90;;;;;;5066245;28;20161;-81
2022/08/24 07:45:13;;;;;;;19.95;5.72;;;24.40;99.90;;;;;;5068065;28;20029;-81
2022/08/24 07:47:38;;;;;;;20.67;5.95;;;24.40;99.90;;;;;;5066074;28;20031;-81
2022/08/24 07:50:05;;;;;;;23.70;7.15;;;24.40;99.90;;;;;;5067825;28;20043;-81
2022/08/24 07:52:31;;;;;;;25.52;5.55;;;24.30;99.90;;;;;;5068052;28;20056;-81
2022/08/24 07:54:56;;;;;;;20.05;5.78;;;24.30;99.90;;;;;;5065877;28;20083;-82
2022/08/24 07:57:22;;;;;;;19.50;5.40;;;24.40;99.90;;;;;;5066812;28;20027;-82
2022/08/24 07:59:48;;;;;;;23.70;6.00;;;24.40;99.90;;;;;;5066247;28;20036;-83
2022/08/24 08:02:14;;;;;;;20.45;7.50;;;24.50;99.90;;;;;;5066579;28;20043;-81
2022/08/24 08:04:40;;;;;;;19.20;5.97;;;24.50;99.90;;;;;;5067787;28;20524;-82
2022/08/24 08:07:06;;;;;;;16.85;6.53;;;24.40;99.90;;;;;;5067436;28;20717;-83
2022/08/24 08:09:35;;;;;;;25.92;6.80;;;24.50;99.90;;;;;;5066288;28;20029;-81
2022/08/24 08:12:01;;;;;;;30.92;6.32;;;24.40;99.90;;;;;;5074183;28;20052;-81
2022/08/24 08:14:26;;;;;;;19.35;6.68;;;24.40;99.90;;;;;;5088375;28;20036;-81
2022/08/24 08:16:52;;;;;;;21.65;7.03;;;24.50;99.90;;;;;;5087624;28;20090;-82
2022/08/24 08:19:18;;;;;;;20.20;6.47;;;24.50;99.90;;;;;;5072533;28;20123;-82
2022/08/24 08:24:30;;;;;;;20.27;5.85;;;24.60;99.90;;;;;;5068007;28;20128;-82
2022/08/24 08:26:56;;;;;;;15.80;5.22;;;24.80;99.90;;;;;;5065208;28;20127;-82
2022/08/24 08:29:23;;;;;;;18.02;5.82;;;24.70;99.90;;;;;;5067503;28;20149;-82
2022/08/24 08:31:50;;;;;;;16.92;5.65;;;24.90;99.90;;;;;;5066729;28;20501;-81
2022/08/24 08:34:17;;;;;;;20.08;6.32;;;25.00;99.90;;;;;;5065305;28;20031;-82
2022/08/24 08:36:43;;;;;;;13.80;5.72;;;25.20;99.90;;;;;;5066815;28;20066;-81
2022/08/24 08:39:12;;;;;;;24.10;6.65;;;25.30;99.90;;;;;;5065732;28;20033;-81
2022/08/24 08:42:13;;;;;;;26.00;6.22;;;25.30;99.90;;;;;;5068333;28;20605;-82
2022/08/24 08:44:51;;;;;;;34.13;7.00;;;25.30;99.90;;;;;;5085918;28;20020;-81
2022/08/24 08:48:05;;;;;;;18.85;6.20;;;25.20;99.90;;;;;;5085533;28;20486;-82
2022/08/24 08:51:06;;;;;;;32.33;8.15;;;25.20;99.90;;;;;;5029369;28;20037;-83
2022/08/24 08:53:58;;;;;;;31.85;8.52;;;24.80;99.90;;;;;;5067832;28;20062;-84
2022/08/24 08:56:43;;;;;;;45.22;9.85;;;24.10;99.90;;;;;;5058263;28;20083;-82
2022/08/24 08:59:14;;;;;;;26.50;10.13;;;23.30;99.90;;;;;;5067158;28;20063;-82
2022/08/24 09:01:46;;;;;;;18.08;9.20;;;22.90;99.90;;;;;;5067095;28;20036;-81
2022/08/24 09:04:21;;;;;;;25.05;10.00;;;22.80;99.90;;;;;;5066232;28;20028;-81
2022/08/24 09:07:11;;;;;;;27.58;9.70;;;22.90;99.90;;;;;;5067389;28;20033;-82
2022/08/24 09:09:45;;;;;;;29.33;9.93;;;23.10;99.90;;;;;;5065665;28;20028;-82
2022/08/24 09:12:24;;;;;;;23.98;9.70;;;23.40;99.90;;;;;;5066134;28;20108;-81
2022/08/24 09:15:17;;;;;;;24.58;10.02;;;23.60;99.90;;;;;;5066359;28;20036;-82
2022/08/24 09:17:55;;;;;;;27.48;10.55;;;24.00;99.90;;;;;;5065828;28;20031;-81
2022/08/24 09:20:48;;;;;;;24.73;10.18;;;24.20;99.90;;;;;;5067087;28;20029;-82
2022/08/24 09:23:32;;;;;;;28.85;11.20;;;24.40;99.90;;;;;;5065296;28;20047;-81
2022/08/24 09:26:22;;;;;;;26.17;10.63;;;24.60;99.90;;;;;;5065161;28;20158;-82
2022/08/24 09:29:10;;;;;;;27.50;8.98;;;24.80;99.90;;;;;;5064858;28;20078;-82
2022/08/24 09:32:11;;;;;;;24.67;8.45;;;24.90;99.90;;;;;;5084477;28;20531;-81
2022/08/24 09:35:01;;;;;;;27.80;7.38;;;24.90;99.90;;;;;;5087140;28;20059;-82
2022/08/24 09:37:48;;;;;;;15.13;7.57;;;24.90;99.90;;;;;;5088172;28;20528;-82
2022/08/24 09:40:49;;;;;;;25.08;8.35;;;24.90;99.90;;;;;;5069015;28;20686;-81
2022/08/24 09:43:31;;;;;;;20.80;7.47;;;25.00;99.90;;;;;;5068457;28;20059;-82
2022/08/24 09:46:31;;;;;;;23.83;8.63;;;25.20;99.90;;;;;;5067437;28;20032;-81
2022/08/24 09:49:49;;;;;;;22.85;7.18;;;25.30;99.90;;;;;;5068196;28;20104;-80
2022/08/24 09:52:26;;;;;;;13.50;5.57;;;25.50;99.90;;;;;;5027079;28;20579;-81
2022/08/24 09:55:05;;;;;;;25.80;5.20;;;25.50;99.90;;;;;;5010274;28;20041;-81
2022/08/24 09:57:57;;;;;;;13.75;5.00;;;25.50;99.90;;;;;;5053112;28;20040;-81
2022/08/24 10:00:47;;;;;;;13.05;4.55;;;25.70;99.90;;;;;;5067780;28;20046;-81
2022/08/24 10:03:44;;;;;;;12.02;4.45;;;25.80;99.90;;;;;;5069364;28;20059;-82
2022/08/24 10:06:16;;;;;;;12.25;4.43;;;25.90;99.90;;;;;;5068414;28;20025;-81
2022/08/24 10:08:51;;;;;;;13.32;3.47;;;26.20;99.90;;;;;;5068339;28;20582;-81
2022/08/24 10:11:26;;;;;;;;;;;26.30;99.90;;;;;;5068055;28;20028;-80
2022/08/24 10:14:20;;;;;;;15.02;2.88;;;26.30;99.90;;;;;;5069514;28;19904;-81
2022/08/24 10:17:19;;;;;;;14.65;3.53;;;26.20;99.90;;;;;;5069242;28;20040;-80
2022/08/24 10:20:03;;;;;;;18.20;4.32;;;26.10;99.90;;;;;;5068176;28;20516;-82
2022/08/24 10:22:48;;;;;;;17.13;3.40;;;26.10;99.90;;;;;;5067783;28;20063;-82
2022/08/24 10:25:26;;;;;;;8.70;3.08;;;25.90;99.90;;;;;;5067289;28;20527;-81
2022/08/24 10:28:30;;;;;;;15.15;3.35;;;25.80;99.90;;;;;;5067941;28;20025;-80
2022/08/24 10:31:09;;;;;;;9.32;2.72;;;25.60;99.90;;;;;;5068207;28;20048;-80
2022/08/24 10:34:01;;;;;;;10.20;3.25;;;25.50;99.90;;;;;;5068016;28;20568;-81
2022/08/24 10:36:32;;;;;;;8.02;2.45;;;25.40;99.90;;;;;;5061860;28;20045;-82
2022/08/24 10:45:57;;;;;;;13.50;2.63;;;25.50;99.90;;;;;;5050714;28;20196;-80
2022/08/24 10:48:29;;;;;;;8.70;2.50;;;25.70;99.90;;;;;;5067171;28;20029;-81
2022/08/24 10:51:38;;;;;;;12.68;3.10;;;25.90;99.90;;;;;;5067041;28;20032;-82
2022/08/24 10:54:09;;;;;;;10.45;2.63;;;26.10;99.90;;;;;;5067014;28;20024;-80
2022/08/24 10:57:05;;;;;;;9.45;3.58;;;26.10;99.90;;;;;;5067149;28;20083;-80
2022/08/24 11:00:01;;;;;;;10.80;3.38;;;26.20;99.90;;;;;;5068264;28;20032;-82
2022/08/24 11:02:35;;;;;;;13.02;2.92;;;26.20;99.90;;;;;;5068079;28;20067;-81
2022/08/24 11:05:06;;;;;;;10.02;3.42;;;26.20;99.90;;;;;;5057532;28;20025;-82
2022/08/24 11:07:33;;;;;;;9.98;2.75;;;26.20;99.90;;;;;;5066388;28;20409;-80
2022/08/24 11:10:01;;;;;;;11.05;3.45;;;26.40;99.90;;;;;;5056379;28;20040;-82
2022/08/24 11:12:35;;;;;;;10.30;3.97;;;26.50;99.90;;;;;;5066497;28;20591;-81
2022/08/24 11:15:19;;;;;;;14.32;5.68;;;26.60;99.90;;;;;;5066156;28;20036;-82
2022/08/24 11:18:01;;;;;;;10.40;3.88;;;26.60;99.90;;;;;;5068225;28;20016;-82
2022/08/24 11:20:33;;;;;;;11.57;3.92;;;26.80;99.90;;;;;;5066784;28;20071;-81
2022/08/24 11:23:08;;;;;;;17.20;3.63;;;26.90;99.90;;;;;;5066771;28;20119;-81
2022/08/24 11:25:40;;;;;;;12.50;3.90;;;26.90;99.90;;;;;;5066311;28;20040;-81
2022/08/24 11:28:16;;;;;;;10.73;3.85;;;26.90;99.90;;;;;;5067699;28;20270;-80
2022/08/24 11:30:41;;;;;;;;;;;26.90;99.90;;;;;;5066612;28;20084;-81
2022/08/24 11:33:28;;;;;;;12.97;3.70;;;26.90;99.90;;;;;;5066379;28;19947;-81
2022/08/24 11:35:55;;;;;;;10.88;4.25;;;27.10;99.90;;;;;;5066011;28;20298;-82
2022/08/24 11:38:29;;;;;;;14.88;4.40;;;27.00;99.90;;;;;;5064812;28;20016;-80
2022/08/24 11:41:02;;;;;;;11.55;3.83;;;27.00;99.90;;;;;;5047933;28;20082;-81
2022/08/24 11:43:33;;;;;;;22.60;4.55;;;26.90;99.90;;;;;;5062623;28;20370;-82
2022/08/24 11:46:06;;;;;;;10.75;3.90;;;26.90;99.90;;;;;;5066090;28;20119;-81
2022/08/24 11:48:40;;;;;;;12.52;4.18;;;26.90;99.90;;;;;;5067197;28;20099;-81
2022/08/24 11:51:13;;;;;;;20.30;4.38;;;27.00;99.90;;;;;;5065830;28;20029;-81
2022/08/24 11:54:01;;;;;;;10.75;3.45;;;27.10;99.90;;;;;;5066236;28;20028;-81
2022/08/24 11:56:36;;;;;;;14.05;3.90;;;27.20;99.90;;;;;;5065787;28;20036;-81
2022/08/24 11:59:11;;;;;;;12.60;4.43;;;27.20;99.90;;;;;;5064370;28;20091;-80
2022/08/24 12:01:39;;;;;;;13.25;4.57;;;27.40;99.90;;;;;;5065696;28;20485;-81
2022/08/24 12:04:17;;;;;;;16.45;4.05;;;27.50;99.90;;;;;;5065702;28;20350;-81
2022/08/24 12:07:01;;;;;;;9.55;4.13;;;27.60;99.90;;;;;;5065909;28;20488;-82
2022/08/24 12:09:38;;;;;;;14.13;4.22;;;27.60;99.90;;;;;;5067405;28;20016;-80
2022/08/24 12:12:24;;;;;;;13.38;3.78;;;27.60;99.90;;;;;;5088652;28;20025;-82
2022/08/24 12:15:00;;;;;;;26.02;4.68;;;27.50;99.90;;;;;;5088525;28;20028;-82
2022/08/24 12:17:35;;;;;;;;;;;27.50;99.90;;;;;;5073495;28;20040;-82
2022/08/24 12:20:39;;;;;;;10.80;3.40;;;27.50;99.90;;;;;;5067577;28;20003;-81
2022/08/24 12:23:28;;;;;;;11.30;4.00;;;27.70;99.90;;;;;;5067829;28;20063;-82
2022/08/24 12:26:23;;;;;;;10.65;4.20;;;28.10;99.90;;;;;;5065448;28;20025;-81
2022/08/24 12:28:54;;;;;;;10.52;3.50;;;28.30;99.90;;;;;;5049651;28;20501;-81
2022/08/24 12:31:31;;;;;;;14.38;4.82;;;28.50;99.90;;;;;;5065606;28;20520;-82
2022/08/24 12:34:03;;;;;;;16.55;4.95;;;28.50;99.90;;;;;;5065463;28;20028;-81
2022/08/24 12:36:56;;;;;;;11.10;3.70;;;28.40;99.90;;;;;;5065388;28;20045;-80
2022/08/24 12:39:27;;;;;;;9.82;4.15;;;28.20;99.90;;;;;;5039323;28;20029;-82
2022/08/24 12:42:00;;;;;;;13.30;4.10;;;28.00;99.90;;;;;;5067342;28;20033;-81
2022/08/24 12:44:37;;;;;;;12.20;3.75;;;27.80;99.90;;;;;;5056812;28;20513;-82
2022/08/24 12:47:03;;;;;;;14.82;5.25;;;27.50;99.90;;;;;;5063783;28;20025;-81
2022/08/24 12:49:50;;;;;;;14.18;4.45;;;27.50;99.90;;;;;;5065376;28;20032;-82
2022/08/24 12:53:02;;;;;;;13.50;4.13;;;27.20;99.90;;;;;;5065140;28;20036;-82
2022/08/24 12:55:55;;;;;;;21.05;5.32;;;27.10;99.90;;;;;;5052985;28;20080;-81
2022/08/24 12:58:39;;;;;;;15.88;4.65;;;27.00;99.90;;;;;;5047654;28;20627;-81
2022/08/24 13:01:06;;;;;;;11.27;4.90;;;26.80;99.90;;;;;;5065803;28;20035;-81
2022/08/24 13:03:41;;;;;;;13.07;4.85;;;26.70;99.90;;;;;;5066562;28;20722;-81
2022/08/24 13:06:15;;;;;;;11.23;4.53;;;26.70;99.90;;;;;;5066021;28;20024;-81
2022/08/24 13:08:44;;;;;;;15.27;5.07;;;26.60;99.90;;;;;;5066355;28;20489;-81
2022/08/24 13:11:13;;;;;;;16.75;4.57;;;26.60;99.90;;;;;;5068561;28;20060;-82
2022/08/24 13:13:42;;;;;;;12.52;5.38;;;26.40;99.90;;;;;;5069736;28;20167;-81
2022/08/24 13:16:09;;;;;;;15.65;4.20;;;26.20;99.90;;;;;;5085866;28;20549;-81
2022/08/24 13:18:46;;;;;;;17.45;3.95;;;26.10;99.90;;;;;;5068874;28;20032;-81